createdAt,value
2022-09-10T00:00:53.700Z,13.70
2022-09-10T00:03:26.375Z,12.20
2022-09-10T00:06:03.323Z,13.70
2022-09-10T00:08:30.643Z,12.90
2022-09-10T00:11:09.117Z,12.60
2022-09-10T00:16:10.324Z,13.90
2022-09-10T00:18:38.636Z,20.50
2022-09-10T00:23:40.340Z,13.30
2022-09-10T00:26:19.635Z,14.70
2022-09-10T00:28:46.807Z,12.30
2022-09-10T00:31:14.144Z,12.10
2022-09-10T00:33:49.650Z,10.90
2022-09-10T00:36:28.402Z,12.60
2022-09-10T00:39:17.158Z,11.60
2022-09-10T00:42:00.434Z,12.50
2022-09-10T00:44:40.674Z,12.30
2022-09-10T00:50:33.947Z,11.60
2022-09-10T00:53:03.759Z,11.50
2022-09-10T00:55:31.016Z,11.40
2022-09-10T00:58:01.028Z,11.80
2022-09-10T01:03:02.553Z,11.50
2022-09-10T01:05:33.535Z,11.10
2022-09-10T01:08:00.558Z,11.30
2022-09-10T01:10:47.673Z,12.20
2022-09-10T01:13:29.639Z,12.30
2022-09-10T01:16:06.606Z,11.20
2022-09-10T01:19:14.690Z,9.80
2022-09-10T01:21:58.670Z,11.00
2022-09-10T01:24:32.643Z,11.10
2022-09-10T01:27:06.719Z,11.30
2022-09-10T01:29:43.944Z,10.70
2022-09-10T01:32:20.575Z,10.80
2022-09-10T01:34:54.690Z,23.60
2022-09-10T01:37:28.841Z,11.90
2022-09-10T01:39:58.219Z,10.30
2022-09-10T01:42:26.519Z,11.80
2022-09-10T01:48:02.719Z,11.30
2022-09-10T01:50:40.633Z,11.80
2022-09-10T01:53:55.410Z,11.40
2022-09-10T01:56:24.979Z,10.20
2022-09-10T01:59:03.307Z,9.80
2022-09-10T02:01:57.372Z,10.70
2022-09-10T02:04:25.170Z,10.50
2022-09-10T02:06:59.082Z,10.90
2022-09-10T02:09:26.823Z,11.40
2022-09-10T02:11:55.620Z,11.30
2022-09-10T02:14:52.357Z,12.10
2022-09-10T02:17:30.516Z,13.30
2022-09-10T02:19:59.389Z,12.40
2022-09-10T02:22:35.639Z,12.30
2022-09-10T02:25:04.071Z,13.30
2022-09-10T02:27:38.508Z,12.70
2022-09-10T02:30:29.647Z,12.70
2022-09-10T02:32:58.865Z,13.80
2022-09-10T02:35:31.204Z,11.20
2022-09-10T02:38:14.517Z,10.00
2022-09-10T02:40:48.846Z,9.90
2022-09-10T02:43:16.782Z,8.20
2022-09-10T02:45:44.028Z,10.10
2022-09-10T02:48:10.732Z,8.40
2022-09-10T02:50:45.683Z,8.00
2022-09-10T02:53:27.843Z,7.80
2022-09-10T02:55:56.421Z,7.70
2022-09-10T02:58:23.141Z,7.60
2022-09-10T03:00:50.191Z,6.70
2022-09-10T03:08:19.664Z,12.40
2022-09-10T03:10:48.161Z,9.40
2022-09-10T03:13:45.715Z,9.00
2022-09-10T03:16:13.983Z,9.00
2022-09-10T03:18:41.825Z,8.30
2022-09-10T03:24:15.316Z,9.50
2022-09-10T03:27:22.207Z,10.30
2022-09-10T03:34:03.645Z,9.40
2022-09-10T03:40:52.488Z,8.50
2022-09-10T03:43:22.007Z,9.40
2022-09-10T03:45:50.843Z,49.00
2022-09-10T03:48:52.027Z,12.10
2022-09-10T03:51:44.119Z,6.60
2022-09-10T03:54:36.674Z,6.40
2022-09-10T03:57:34.967Z,6.30
2022-09-10T04:00:06.709Z,5.90
2022-09-10T04:06:45.199Z,3.30
2022-09-10T04:10:20.733Z,3.10
2022-09-10T04:13:59.586Z,4.10
2022-09-10T04:16:27.739Z,4.80
2022-09-10T04:19:03.829Z,3.90
2022-09-10T04:22:01.002Z,4.40
2022-09-10T04:24:59.044Z,6.40
2022-09-10T04:27:29.536Z,5.70
2022-09-10T04:30:28.183Z,5.00
2022-09-10T04:33:17.099Z,5.70
2022-09-10T04:35:44.180Z,5.90
2022-09-10T04:39:07.079Z,7.30
2022-09-10T04:42:00.614Z,8.00
2022-09-10T04:52:33.788Z,6.70
2022-09-10T04:55:20.880Z,10.00
2022-09-10T04:58:36.579Z,9.40
2022-09-10T05:01:36.280Z,8.80
2022-09-10T05:04:22.547Z,7.10
2022-09-10T05:10:44.715Z,7.60
2022-09-10T05:13:16.984Z,8.70
2022-09-10T05:21:32.904Z,7.30
2022-09-10T05:24:47.908Z,7.20
2022-09-10T05:27:15.495Z,8.50
2022-09-10T05:34:27.843Z,6.60
2022-09-10T05:37:21.574Z,7.10
2022-09-10T05:39:56.092Z,7.10
2022-09-10T05:46:23.604Z,8.00
2022-09-10T05:49:14.633Z,7.10
2022-09-10T05:51:41.639Z,7.00
2022-09-10T05:54:08.997Z,13.90
2022-09-10T05:56:36.045Z,8.20
2022-09-10T05:59:25.325Z,8.60
2022-09-10T06:02:00.368Z,8.50
2022-09-10T06:04:27.736Z,10.30
2022-09-10T06:06:56.978Z,9.90
2022-09-10T06:09:24.305Z,10.00
2022-09-10T06:11:58.742Z,11.90
2022-09-10T06:14:25.758Z,10.50
2022-09-10T06:16:54.637Z,11.00
2022-09-10T06:22:47.945Z,9.40
2022-09-10T06:29:38.383Z,8.10
2022-09-10T06:32:07.574Z,7.30
2022-09-10T06:35:05.785Z,8.10
2022-09-10T06:37:33.831Z,8.70
2022-09-10T06:43:57.295Z,6.80
2022-09-10T06:47:09.508Z,7.00
2022-09-10T06:49:12.497Z,7.70
2022-09-10T06:51:41.779Z,7.80
2022-09-10T06:54:10.143Z,7.40
2022-09-10T06:56:37.438Z,7.30
2022-09-10T07:04:19.336Z,6.70
2022-09-10T07:13:14.939Z,7.70
2022-09-10T07:15:46.058Z,8.10
2022-09-10T07:18:21.232Z,7.20
2022-09-10T07:20:54.421Z,7.60
2022-09-10T07:26:21.304Z,7.60
2022-09-10T07:28:51.613Z,7.70
2022-09-10T07:31:19.698Z,7.20
2022-09-10T07:33:52.218Z,7.00
2022-09-10T07:36:19.028Z,8.00
2022-09-10T07:38:52.115Z,7.60
2022-09-10T07:41:19.207Z,10.30
2022-09-10T07:43:54.347Z,6.80
2022-09-10T07:47:16.300Z,7.00
2022-09-10T07:49:46.675Z,7.90
2022-09-10T07:52:17.943Z,9.60
2022-09-10T07:54:49.176Z,8.70
2022-09-10T07:57:16.259Z,7.50
2022-09-10T08:00:06.705Z,8.70
2022-09-10T08:02:52.261Z,7.70
2022-09-10T08:05:20.912Z,7.70
2022-09-10T08:07:55.355Z,7.80
2022-09-10T08:10:32.058Z,8.20
2022-09-10T08:13:48.021Z,8.10
2022-09-10T08:16:24.241Z,8.10
2022-09-10T08:18:58.670Z,8.10
2022-09-10T08:21:26.277Z,7.40
2022-09-10T08:23:54.012Z,8.80
2022-09-10T08:26:29.682Z,8.60
2022-09-10T08:28:58.855Z,9.80
2022-09-10T08:31:29.078Z,10.10
2022-09-10T08:34:04.954Z,8.10
2022-09-10T08:36:37.772Z,10.30
2022-09-10T08:39:09.240Z,8.80
2022-09-10T08:42:10.686Z,11.60
2022-09-10T08:44:50.871Z,10.00
2022-09-10T08:50:35.855Z,9.00
2022-09-10T08:53:17.879Z,8.60
2022-09-10T08:55:48.956Z,11.70
2022-09-10T08:59:05.082Z,9.60
2022-09-10T09:02:07.865Z,7.30
2022-09-10T09:04:48.830Z,7.30
2022-09-10T09:07:19.341Z,6.90
2022-09-10T09:09:51.052Z,6.90
2022-09-10T09:13:33.700Z,5.90
2022-09-10T09:16:20.897Z,8.90
2022-09-10T09:19:05.573Z,14.50
2022-09-10T09:21:41.007Z,15.90
2022-09-10T09:24:30.869Z,15.10
2022-09-10T09:27:09.490Z,6.30
2022-09-10T09:30:00.951Z,9.80
2022-09-10T09:32:32.621Z,9.30
2022-09-10T09:35:23.878Z,9.50
2022-09-10T09:38:05.175Z,9.30
2022-09-10T09:43:43.805Z,10.80
2022-09-10T09:46:16.485Z,8.80
2022-09-10T09:48:46.880Z,8.10
2022-09-10T09:51:19.726Z,9.00
2022-09-10T09:54:19.866Z,9.10
2022-09-10T09:56:42.027Z,9.30
2022-09-10T09:59:28.007Z,10.10
2022-09-10T10:02:08.826Z,8.50
2022-09-10T10:04:39.039Z,9.30
2022-09-10T10:07:11.315Z,8.50
2022-09-10T10:09:41.864Z,8.70
2022-09-10T10:12:15.820Z,8.60
2022-09-10T10:14:43.279Z,13.20
2022-09-10T10:17:21.929Z,10.40
2022-09-10T10:20:07.983Z,7.40
2022-09-10T10:22:36.664Z,4.80
2022-09-10T10:25:06.408Z,2.90
2022-09-10T10:27:44.828Z,3.20
2022-09-10T10:30:15.927Z,2.70
2022-09-10T10:32:47.451Z,2.80
2022-09-10T10:35:19.582Z,3.90
2022-09-10T10:38:13.863Z,2.40
2022-09-10T10:40:50.900Z,3.10
2022-09-10T10:43:24.923Z,3.10
2022-09-10T10:45:55.493Z,2.70
2022-09-10T10:48:42.587Z,2.50
2022-09-10T10:51:28.912Z,3.30
2022-09-10T10:54:10.838Z,3.80
2022-09-10T10:56:42.054Z,3.60
2022-09-10T10:59:22.976Z,3.20
2022-09-10T11:02:00.559Z,3.30
2022-09-10T11:04:40.350Z,3.50
2022-09-10T11:07:22.549Z,3.50
2022-09-10T11:09:58.334Z,3.30
2022-09-10T11:12:33.336Z,3.40
2022-09-10T11:15:43.776Z,4.10
2022-09-10T11:18:33.938Z,3.60
2022-09-10T11:21:06.904Z,4.10
2022-09-10T11:23:50.700Z,4.80
2022-09-10T11:26:56.019Z,25.00
2022-09-10T11:29:31.091Z,9.20
2022-09-10T11:32:07.000Z,8.00
2022-09-10T11:34:40.610Z,4.30
2022-09-10T11:37:17.583Z,2.40
2022-09-10T11:39:51.858Z,2.10
2022-09-10T11:42:18.518Z,3.30
2022-09-10T11:45:07.221Z,3.20
2022-09-10T11:47:35.882Z,2.80
2022-09-10T11:52:39.826Z,2.50
2022-09-10T11:55:13.088Z,3.00
2022-09-10T11:58:11.434Z,4.80
2022-09-10T12:00:53.434Z,3.90
2022-09-10T12:03:26.535Z,7.30
2022-09-10T12:06:04.841Z,8.20
2022-09-10T12:08:56.345Z,6.00
2022-09-10T12:11:32.086Z,6.10
2022-09-10T12:13:59.689Z,4.20
2022-09-10T12:16:38.856Z,3.90
2022-09-10T12:19:17.806Z,3.20
2022-09-10T12:22:03.289Z,4.00
2022-09-10T12:24:38.000Z,3.70
2022-09-10T12:27:06.350Z,4.60
2022-09-10T12:29:42.698Z,4.00
2022-09-10T12:32:18.926Z,5.50
2022-09-10T12:34:50.505Z,4.90
2022-09-10T12:37:27.372Z,4.50
2022-09-10T12:40:13.267Z,4.20
2022-09-10T12:42:42.100Z,5.10
2022-09-10T12:47:49.581Z,4.00
2022-09-10T12:50:37.922Z,3.50
2022-09-10T12:55:54.890Z,4.30
2022-09-10T12:58:33.528Z,4.50
2022-09-10T13:01:12.069Z,4.10
2022-09-10T13:06:17.693Z,3.70
2022-09-10T13:08:46.967Z,3.50
2022-09-10T13:11:21.897Z,4.20
2022-09-10T13:13:49.204Z,2.90
2022-09-10T13:16:20.866Z,4.10
2022-09-10T13:18:48.140Z,4.40
2022-09-10T13:21:36.868Z,4.00
2022-09-10T13:24:15.333Z,6.70
2022-09-10T13:26:51.669Z,5.70
2022-09-10T13:29:32.934Z,3.50
2022-09-10T13:34:57.908Z,3.30
2022-09-10T13:37:34.884Z,3.20
2022-09-10T13:40:08.004Z,3.80
2022-09-10T13:42:38.871Z,2.10
2022-09-10T13:45:27.762Z,2.50
2022-09-10T13:48:14.474Z,3.40
2022-09-10T13:50:46.896Z,2.60
2022-09-10T13:53:15.762Z,5.20
2022-09-10T13:55:57.188Z,3.40
2022-09-10T13:58:28.078Z,4.10
2022-09-10T14:00:57.956Z,3.40
2022-09-10T14:03:38.604Z,3.70
2022-09-10T14:06:11.122Z,4.00
2022-09-10T14:08:47.273Z,3.00
2022-09-10T14:11:18.158Z,3.10
2022-09-10T14:13:47.967Z,4.00
2022-09-10T14:16:29.530Z,3.50
2022-09-10T14:19:01.843Z,3.00
2022-09-10T14:21:29.850Z,2.60
2022-09-10T14:24:01.283Z,2.40
2022-09-10T14:26:30.725Z,1.70
2022-09-10T14:28:59.201Z,2.10
2022-09-10T14:31:26.986Z,1.60
2022-09-10T14:33:55.321Z,1.40
2022-09-10T14:36:25.746Z,1.50
2022-09-10T14:39:02.907Z,1.20
2022-09-10T14:41:32.169Z,1.30
2022-09-10T14:44:15.051Z,2.10
2022-09-10T14:46:51.905Z,1.60
2022-09-10T14:49:31.056Z,2.00
2022-09-10T14:51:59.447Z,1.80
2022-09-10T14:54:28.542Z,2.40
2022-09-10T14:56:57.415Z,2.10
2022-09-10T14:59:34.512Z,1.90
2022-09-10T15:02:37.750Z,2.40
2022-09-10T15:05:04.862Z,2.20
2022-09-10T15:07:40.852Z,2.30
2022-09-10T15:10:08.067Z,2.20
2022-09-10T15:12:37.237Z,3.30
2022-09-10T15:15:07.766Z,2.70
2022-09-10T15:17:34.363Z,5.30
2022-09-10T15:20:04.609Z,3.40
2022-09-10T15:22:31.840Z,4.40
2022-09-10T15:25:09.765Z,4.60
2022-09-10T15:30:30.028Z,3.80
2022-09-10T15:32:58.154Z,2.90
2022-09-10T15:35:26.564Z,4.20
2022-09-10T15:37:54.555Z,4.20
2022-09-10T15:40:22.663Z,4.40
2022-09-10T15:45:27.189Z,3.50
2022-09-10T15:47:55.328Z,5.70
2022-09-10T15:50:23.612Z,3.40
2022-09-10T15:52:59.955Z,4.50
2022-09-10T15:55:28.324Z,4.10
2022-09-10T16:01:40.692Z,4.20
2022-09-10T16:04:09.946Z,4.00
2022-09-10T16:06:43.895Z,4.60
2022-09-10T16:09:13.424Z,4.20
2022-09-10T16:11:43.240Z,4.40
2022-09-10T16:15:02.780Z,5.00
2022-09-10T16:25:39.813Z,5.00
2022-09-10T16:43:25.788Z,11.00
2022-09-10T16:46:05.580Z,14.00
2022-09-10T16:48:58.576Z,8.00
2022-09-10T16:52:24.626Z,9.00
2022-09-10T17:06:27.902Z,3.00
2022-09-10T17:09:23.009Z,3.10
2022-09-10T17:22:11.158Z,6.70
2022-09-10T17:43:49.759Z,6.70
2022-09-10T18:12:27.812Z,2.20
2022-09-10T18:14:55.931Z,1.80
2022-09-10T18:28:31.310Z,1.40
2022-09-10T18:42:38.416Z,6.40
2022-09-10T18:49:20.321Z,2.80
2022-09-10T18:52:40.865Z,5.10
2022-09-10T19:17:40.557Z,7.20
2022-09-10T19:20:08.361Z,4.20
2022-09-10T19:23:38.015Z,3.00
2022-09-10T19:42:09.266Z,7.30
2022-09-10T19:53:37.092Z,4.90
2022-09-10T20:11:20.952Z,2.80
2022-09-10T20:17:33.520Z,4.30
2022-09-10T20:20:05.001Z,3.60
2022-09-10T20:26:37.538Z,2.80
2022-09-10T20:33:23.716Z,3.30
2022-09-10T20:43:40.940Z,3.90
2022-09-10T21:33:07.108Z,7.50
2022-09-10T21:43:45.875Z,4.60
2022-09-10T21:59:01.689Z,4.00
2022-09-10T22:40:37.125Z,3.80
2022-09-10T22:55:17.164Z,4.20
2022-09-10T22:58:41.055Z,4.50
2022-09-10T23:35:58.808Z,3.20
2022-09-10T23:38:25.638Z,2.70
